sensor_id;sensor_type;location;lat;lon;timestamp;temperature;humidity
14008;DHT22;61651;45.508;12.232;2022-12-07T00:00:45;8.80;99.90
14008;DHT22;61651;45.508;12.232;2022-12-07T00:03:50;8.80;99.90
14008;DHT22;61651;45.508;12.232;2022-12-07T00:06:53;8.80;99.90
14008;DHT22;61651;45.508;12.232;2022-12-07T00:09:55;8.70;99.90
14008;DHT22;61651;45.508;12.232;2022-12-07T00:12:57;8.60;99.90
14008;DHT22;61651;45.508;12.232;2022-12-07T00:16:00;8.60;99.90
14008;DHT22;61651;45.508;12.232;2022-12-07T00:19:04;8.60;99.90
14008;DHT22;61651;45.508;12.232;2022-12-07T00:22:07;8.60;99.90
14008;DHT22;61651;45.508;12.232;2022-12-07T00:25:09;8.30;99.90
14008;DHT22;61651;45.508;12.232;2022-12-07T00:28:11;7.90;99.90
14008;DHT22;61651;45.508;12.232;2022-12-07T00:31:14;7.70;99.90
14008;DHT22;61651;45.508;12.232;2022-12-07T00:34:20;7.50;99.90
14008;DHT22;61651;45.508;12.232;2022-12-07T00:37:22;7.40;99.90
14008;DHT22;61651;45.508;12.232;2022-12-07T00:40:24;7.50;99.90
14008;DHT22;61651;45.508;12.232;2022-12-07T00:43:26;7.70;99.90
14008;DHT22;61651;45.508;12.232;2022-12-07T00:46:29;8.00;99.90
14008;DHT22;61651;45.508;12.232;2022-12-07T00:49:33;8.20;99.90
14008;DHT22;61651;45.508;12.232;2022-12-07T00:52:35;8.20;99.90
14008;DHT22;61651;45.508;12.232;2022-12-07T00:55:37;8.00;99.90
14008;DHT22;61651;45.508;12.232;2022-12-07T00:58:40;8.10;99.90
14008;DHT22;61651;45.508;12.232;2022-12-07T01:01:42;7.90;99.90
14008;DHT22;61651;45.508;12.232;2022-12-07T01:04:45;8.00;99.90
14008;DHT22;61651;45.508;12.232;2022-12-07T01:07:47;8.10;99.90
14008;DHT22;61651;45.508;12.232;2022-12-07T01:10:56;8.30;99.90
14008;DHT22;61651;45.508;12.232;2022-12-07T01:13:59;8.20;99.90
14008;DHT22;61651;45.508;12.232;2022-12-07T01:17:02;8.10;99.90
14008;DHT22;61651;45.508;12.232;2022-12-07T01:20:08;8.20;99.90
14008;DHT22;61651;45.508;12.232;2022-12-07T01:23:10;8.30;99.90
14008;DHT22;61651;45.508;12.232;2022-12-07T01:26:14;8.30;99.90
14008;DHT22;61651;45.508;12.232;2022-12-07T01:29:17;8.20;99.90
14008;DHT22;61651;45.508;12.232;2022-12-07T01:32:19;8.10;99.90
14008;DHT22;61651;45.508;12.232;2022-12-07T01:35:22;8.00;99.90
14008;DHT22;61651;45.508;12.232;2022-12-07T01:38:24;8.00;99.90
14008;DHT22;61651;45.508;12.232;2022-12-07T01:41:28;8.10;99.90
14008;DHT22;61651;45.508;12.232;2022-12-07T01:44:31;8.20;99.90
14008;DHT22;61651;45.508;12.232;2022-12-07T01:47:33;8.20;99.90
14008;DHT22;61651;45.508;12.232;2022-12-07T01:50:37;8.30;99.90
14008;DHT22;61651;45.508;12.232;2022-12-07T01:53:43;8.50;99.90
14008;DHT22;61651;45.508;12.232;2022-12-07T01:56:51;8.60;99.90
14008;DHT22;61651;45.508;12.232;2022-12-07T01:59:55;8.70;99.90
14008;DHT22;61651;45.508;12.232;2022-12-07T02:03:04;8.60;99.90
14008;DHT22;61651;45.508;12.232;2022-12-07T02:06:11;8.30;99.90
14008;DHT22;61651;45.508;12.232;2022-12-07T02:09:14;7.90;99.90
14008;DHT22;61651;45.508;12.232;2022-12-07T02:12:16;7.90;99.90
14008;DHT22;61651;45.508;12.232;2022-12-07T02:15:20;8.00;99.90
14008;DHT22;61651;45.508;12.232;2022-12-07T02:18:28;8.10;99.90
14008;DHT22;61651;45.508;12.232;2022-12-07T02:21:39;7.60;99.90
14008;DHT22;61651;45.508;12.232;2022-12-07T02:24:51;7.20;99.90
14008;DHT22;61651;45.508;12.232;2022-12-07T02:28:01;6.80;99.90
14008;DHT22;61651;45.508;12.232;2022-12-07T02:31:14;6.70;99.90
14008;DHT22;61651;45.508;12.232;2022-12-07T02:34:23;6.40;99.90
14008;DHT22;61651;45.508;12.232;2022-12-07T02:37:33;6.10;99.90
14008;DHT22;61651;45.508;12.232;2022-12-07T02:40:40;6.10;99.90
14008;DHT22;61651;45.508;12.232;2022-12-07T02:43:46;6.30;99.90
14008;DHT22;61651;45.508;12.232;2022-12-07T02:46:53;6.40;99.90
14008;DHT22;61651;45.508;12.232;2022-12-07T02:49:56;6.10;99.90
14008;DHT22;61651;45.508;12.232;2022-12-07T02:52:58;6.30;99.90
14008;DHT22;61651;45.508;12.232;2022-12-07T02:56:05;6.70;99.90
14008;DHT22;61651;45.508;12.232;2022-12-07T03:07:11;7.50;99.90
14008;DHT22;61651;45.508;12.232;2022-12-07T03:10:20;7.50;99.90
14008;DHT22;61651;45.508;12.232;2022-12-07T03:13:29;7.50;99.90
14008;DHT22;61651;45.508;12.232;2022-12-07T03:16:36;7.50;99.90
14008;DHT22;61651;45.508;12.232;2022-12-07T03:19:43;7.40;99.90
14008;DHT22;61651;45.508;12.232;2022-12-07T03:22:48;7.50;99.90
14008;DHT22;61651;45.508;12.232;2022-12-07T03:25:55;7.60;99.90
14008;DHT22;61651;45.508;12.232;2022-12-07T03:29:01;7.60;99.90
14008;DHT22;61651;45.508;12.232;2022-12-07T03:32:09;7.70;99.90
14008;DHT22;61651;45.508;12.232;2022-12-07T03:35:16;7.80;99.90
14008;DHT22;61651;45.508;12.232;2022-12-07T03:38:24;7.80;99.90
14008;DHT22;61651;45.508;12.232;2022-12-07T03:41:30;7.80;99.90
14008;DHT22;61651;45.508;12.232;2022-12-07T03:44:34;7.80;99.90
14008;DHT22;61651;45.508;12.232;2022-12-07T03:47:43;7.70;99.90
14008;DHT22;61651;45.508;12.232;2022-12-07T03:50:52;7.70;99.90
14008;DHT22;61651;45.508;12.232;2022-12-07T03:54:00;7.70;99.90
14008;DHT22;61651;45.508;12.232;2022-12-07T03:57:07;7.60;99.90
14008;DHT22;61651;45.508;12.232;2022-12-07T04:00:12;7.50;99.90
14008;DHT22;61651;45.508;12.232;2022-12-07T04:03:14;7.50;99.90
14008;DHT22;61651;45.508;12.232;2022-12-07T04:06:16;7.60;99.90
14008;DHT22;61651;45.508;12.232;2022-12-07T04:09:19;7.60;99.90
14008;DHT22;61651;45.508;12.232;2022-12-07T04:12:22;7.60;99.90
14008;DHT22;61651;45.508;12.232;2022-12-07T04:15:24;7.60;99.90
14008;DHT22;61651;45.508;12.232;2022-12-07T04:18:26;7.20;99.90
14008;DHT22;61651;45.508;12.232;2022-12-07T04:21:28;6.20;99.90
14008;DHT22;61651;45.508;12.232;2022-12-07T04:24:31;5.90;99.90
14008;DHT22;61651;45.508;12.232;2022-12-07T04:27:33;5.90;99.90
14008;DHT22;61651;45.508;12.232;2022-12-07T04:30:35;6.10;99.90
14008;DHT22;61651;45.508;12.232;2022-12-07T04:33:37;6.30;99.90
14008;DHT22;61651;45.508;12.232;2022-12-07T04:36:40;6.10;99.90
14008;DHT22;61651;45.508;12.232;2022-12-07T04:39:44;6.10;99.90
14008;DHT22;61651;45.508;12.232;2022-12-07T04:42:46;6.00;99.90
14008;DHT22;61651;45.508;12.232;2022-12-07T04:45:48;5.80;99.90
14008;DHT22;61651;45.508;12.232;2022-12-07T04:48:51;5.70;99.90
14008;DHT22;61651;45.508;12.232;2022-12-07T04:51:53;5.80;99.90
14008;DHT22;61651;45.508;12.232;2022-12-07T04:54:57;6.10;99.90
14008;DHT22;61651;45.508;12.232;2022-12-07T04:57:59;5.90;99.90
14008;DHT22;61651;45.508;12.232;2022-12-07T05:01:01;6.00;99.90
14008;DHT22;61651;45.508;12.232;2022-12-07T05:04:03;5.90;99.90
14008;DHT22;61651;45.508;12.232;2022-12-07T05:07:05;5.70;99.90
14008;DHT22;61651;45.508;12.232;2022-12-07T05:10:09;6.00;99.90
14008;DHT22;61651;45.508;12.232;2022-12-07T05:13:11;6.30;99.90
14008;DHT22;61651;45.508;12.232;2022-12-07T05:16:13;6.50;99.90
14008;DHT22;61651;45.508;12.232;2022-12-07T05:19:16;6.60;99.90
14008;DHT22;61651;45.508;12.232;2022-12-07T05:22:19;6.60;99.90
14008;DHT22;61651;45.508;12.232;2022-12-07T05:25:23;5.90;99.90
14008;DHT22;61651;45.508;12.232;2022-12-07T05:28:25;5.60;99.90
14008;DHT22;61651;45.508;12.232;2022-12-07T05:31:27;5.60;99.90
14008;DHT22;61651;45.508;12.232;2022-12-07T05:34:29;5.90;99.90
14008;DHT22;61651;45.508;12.232;2022-12-07T05:37:31;6.20;99.90
14008;DHT22;61651;45.508;12.232;2022-12-07T05:40:36;6.50;99.90
14008;DHT22;61651;45.508;12.232;2022-12-07T05:43:38;6.60;99.90
14008;DHT22;61651;45.508;12.232;2022-12-07T05:46:40;6.70;99.90
14008;DHT22;61651;45.508;12.232;2022-12-07T05:49:42;6.70;99.90
14008;DHT22;61651;45.508;12.232;2022-12-07T05:52:44;6.70;99.90
14008;DHT22;61651;45.508;12.232;2022-12-07T05:55:47;6.80;99.90
14008;DHT22;61651;45.508;12.232;2022-12-07T05:58:49;6.80;99.90
14008;DHT22;61651;45.508;12.232;2022-12-07T06:02:11;6.80;99.90
14008;DHT22;61651;45.508;12.232;2022-12-07T06:05:13;6.80;99.90
14008;DHT22;61651;45.508;12.232;2022-12-07T06:08:15;6.80;99.90
14008;DHT22;61651;45.508;12.232;2022-12-07T06:11:19;6.80;99.90
14008;DHT22;61651;45.508;12.232;2022-12-07T06:14:38;6.80;99.90
14008;DHT22;61651;45.508;12.232;2022-12-07T06:17:40;6.80;99.90
14008;DHT22;61651;45.508;12.232;2022-12-07T06:20:42;6.80;99.90
14008;DHT22;61651;45.508;12.232;2022-12-07T06:23:44;6.80;99.90
14008;DHT22;61651;45.508;12.232;2022-12-07T06:26:48;6.70;99.90
14008;DHT22;61651;45.508;12.232;2022-12-07T06:29:50;6.70;99.90
14008;DHT22;61651;45.508;12.232;2022-12-07T06:32:52;6.60;99.90
14008;DHT22;61651;45.508;12.232;2022-12-07T06:35:54;6.50;99.90
14008;DHT22;61651;45.508;12.232;2022-12-07T06:38:57;6.60;99.90
14008;DHT22;61651;45.508;12.232;2022-12-07T06:42:00;6.60;99.90
14008;DHT22;61651;45.508;12.232;2022-12-07T06:45:03;6.70;99.90
14008;DHT22;61651;45.508;12.232;2022-12-07T06:48:05;6.70;99.90
14008;DHT22;61651;45.508;12.232;2022-12-07T06:51:07;6.80;99.90
14008;DHT22;61651;45.508;12.232;2022-12-07T06:54:10;6.80;99.90
14008;DHT22;61651;45.508;12.232;2022-12-07T06:57:14;6.80;99.90
14008;DHT22;61651;45.508;12.232;2022-12-07T07:00:17;6.70;99.90
14008;DHT22;61651;45.508;12.232;2022-12-07T07:03:19;6.80;99.90
14008;DHT22;61651;45.508;12.232;2022-12-07T07:06:21;6.80;99.90
14008;DHT22;61651;45.508;12.232;2022-12-07T07:09:23;6.90;99.90
14008;DHT22;61651;45.508;12.232;2022-12-07T07:12:26;6.90;99.90
14008;DHT22;61651;45.508;12.232;2022-12-07T07:15:28;6.90;99.90
14008;DHT22;61651;45.508;12.232;2022-12-07T07:18:30;6.90;99.90
14008;DHT22;61651;45.508;12.232;2022-12-07T07:21:32;6.90;99.90
14008;DHT22;61651;45.508;12.232;2022-12-07T07:24:34;7.00;99.90
14008;DHT22;61651;45.508;12.232;2022-12-07T07:27:38;7.10;99.90
14008;DHT22;61651;45.508;12.232;2022-12-07T07:30:40;7.10;99.90
14008;DHT22;61651;45.508;12.232;2022-12-07T07:33:42;7.10;99.90
14008;DHT22;61651;45.508;12.232;2022-12-07T07:36:44;7.00;99.90
14008;DHT22;61651;45.508;12.232;2022-12-07T07:39:46;6.90;99.90
14008;DHT22;61651;45.508;12.232;2022-12-07T07:42:50;6.90;99.90
14008;DHT22;61651;45.508;12.232;2022-12-07T07:45:53;7.00;99.90
14008;DHT22;61651;45.508;12.232;2022-12-07T07:48:55;7.00;99.90
14008;DHT22;61651;45.508;12.232;2022-12-07T07:51:57;7.00;99.90
14008;DHT22;61651;45.508;12.232;2022-12-07T07:54:59;7.00;99.90
14008;DHT22;61651;45.508;12.232;2022-12-07T07:58:02;7.00;99.90
14008;DHT22;61651;45.508;12.232;2022-12-07T08:01:05;6.90;99.90
14008;DHT22;61651;45.508;12.232;2022-12-07T08:04:07;6.80;99.90
14008;DHT22;61651;45.508;12.232;2022-12-07T08:07:09;6.80;99.90
14008;DHT22;61651;45.508;12.232;2022-12-07T08:10:13;6.70;99.90
14008;DHT22;61651;45.508;12.232;2022-12-07T08:13:17;6.70;99.90
14008;DHT22;61651;45.508;12.232;2022-12-07T08:16:19;6.90;99.90
14008;DHT22;61651;45.508;12.232;2022-12-07T08:19:21;6.90;99.90
14008;DHT22;61651;45.508;12.232;2022-12-07T08:22:23;6.90;99.90
14008;DHT22;61651;45.508;12.232;2022-12-07T08:25:25;7.20;99.90
14008;DHT22;61651;45.508;12.232;2022-12-07T08:28:29;7.40;99.90
14008;DHT22;61651;45.508;12.232;2022-12-07T08:31:31;7.60;99.90
14008;DHT22;61651;45.508;12.232;2022-12-07T08:34:33;7.70;99.90
14008;DHT22;61651;45.508;12.232;2022-12-07T08:37:36;7.80;99.90
14008;DHT22;61651;45.508;12.232;2022-12-07T08:40:38;7.80;99.90
14008;DHT22;61651;45.508;12.232;2022-12-07T08:43:42;7.70;99.90
14008;DHT22;61651;45.508;12.232;2022-12-07T08:46:46;7.60;99.90
14008;DHT22;61651;45.508;12.232;2022-12-07T08:49:51;7.80;99.90
14008;DHT22;61651;45.508;12.232;2022-12-07T08:52:56;7.90;99.90
14008;DHT22;61651;45.508;12.232;2022-12-07T08:55:59;7.80;99.90
14008;DHT22;61651;45.508;12.232;2022-12-07T08:59:03;7.80;99.90
14008;DHT22;61651;45.508;12.232;2022-12-07T09:02:06;7.90;99.90
14008;DHT22;61651;45.508;12.232;2022-12-07T09:05:08;7.80;99.90
14008;DHT22;61651;45.508;12.232;2022-12-07T09:08:10;8.00;99.90
14008;DHT22;61651;45.508;12.232;2022-12-07T09:11:13;8.00;99.90
14008;DHT22;61651;45.508;12.232;2022-12-07T09:14:16;7.60;99.90
14008;DHT22;61651;45.508;12.232;2022-12-07T09:17:19;7.70;99.90
14008;DHT22;61651;45.508;12.232;2022-12-07T09:20:21;7.40;99.90
14008;DHT22;61651;45.508;12.232;2022-12-07T09:23:23;7.20;99.90
14008;DHT22;61651;45.508;12.232;2022-12-07T09:26:25;7.50;99.90
14008;DHT22;61651;45.508;12.232;2022-12-07T09:29:29;7.50;99.90
14008;DHT22;61651;45.508;12.232;2022-12-07T09:32:31;7.70;99.90
14008;DHT22;61651;45.508;12.232;2022-12-07T09:35:33;7.90;99.90
14008;DHT22;61651;45.508;12.232;2022-12-07T09:38:35;7.90;99.90
14008;DHT22;61651;45.508;12.232;2022-12-07T09:41:38;8.00;99.90
14008;DHT22;61651;45.508;12.232;2022-12-07T09:44:42;8.20;99.90
14008;DHT22;61651;45.508;12.232;2022-12-07T09:47:45;8.50;99.90
14008;DHT22;61651;45.508;12.232;2022-12-07T09:50:48;8.60;99.90
14008;DHT22;61651;45.508;12.232;2022-12-07T09:53:52;8.70;99.90
14008;DHT22;61651;45.508;12.232;2022-12-07T09:56:54;8.90;99.90
14008;DHT22;61651;45.508;12.232;2022-12-07T10:00:02;9.10;99.90
14008;DHT22;61651;45.508;12.232;2022-12-07T10:03:05;9.30;99.90
14008;DHT22;61651;45.508;12.232;2022-12-07T10:06:12;9.50;99.90
14008;DHT22;61651;45.508;12.232;2022-12-07T10:09:16;9.50;99.90
14008;DHT22;61651;45.508;12.232;2022-12-07T10:12:18;9.80;99.90
14008;DHT22;61651;45.508;12.232;2022-12-07T10:15:22;9.90;99.90
14008;DHT22;61651;45.508;12.232;2022-12-07T10:18:30;10.10;99.90
14008;DHT22;61651;45.508;12.232;2022-12-07T10:21:32;10.20;99.90
14008;DHT22;61651;45.508;12.232;2022-12-07T10:24:35;10.30;99.90
14008;DHT22;61651;45.508;12.232;2022-12-07T10:27:37;10.40;99.90
14008;DHT22;61651;45.508;12.232;2022-12-07T10:31:02;10.40;99.90
14008;DHT22;61651;45.508;12.232;2022-12-07T10:34:20;10.50;99.90
14008;DHT22;61651;45.508;12.232;2022-12-07T10:37:24;10.60;99.90
14008;DHT22;61651;45.508;12.232;2022-12-07T10:40:31;10.60;99.90
14008;DHT22;61651;45.508;12.232;2022-12-07T10:43:34;10.80;99.90
14008;DHT22;61651;45.508;12.232;2022-12-07T10:46:53;10.90;99.90
14008;DHT22;61651;45.508;12.232;2022-12-07T10:50:27;10.90;99.90
14008;DHT22;61651;45.508;12.232;2022-12-07T10:53:40;11.00;99.90
14008;DHT22;61651;45.508;12.232;2022-12-07T11:00:17;11.40;99.90
14008;DHT22;61651;45.508;12.232;2022-12-07T11:03:31;11.50;99.90
14008;DHT22;61651;45.508;12.232;2022-12-07T11:06:40;11.60;99.90
14008;DHT22;61651;45.508;12.232;2022-12-07T11:10:04;11.70;99.90
14008;DHT22;61651;45.508;12.232;2022-12-07T11:13:24;11.80;99.90
14008;DHT22;61651;45.508;12.232;2022-12-07T11:16:38;11.90;99.90
14008;DHT22;61651;45.508;12.232;2022-12-07T11:19:52;12.10;99.90
14008;DHT22;61651;45.508;12.232;2022-12-07T11:23:02;12.20;99.90
14008;DHT22;61651;45.508;12.232;2022-12-07T11:26:10;12.30;99.90
14008;DHT22;61651;45.508;12.232;2022-12-07T11:29:32;12.40;99.90
14008;DHT22;61651;45.508;12.232;2022-12-07T11:33:07;12.50;99.90
14008;DHT22;61651;45.508;12.232;2022-12-07T11:36:24;12.70;99.90
14008;DHT22;61651;45.508;12.232;2022-12-07T11:39:36;12.80;99.90
14008;DHT22;61651;45.508;12.232;2022-12-07T11:42:42;12.80;99.90
14008;DHT22;61651;45.508;12.232;2022-12-07T11:45:50;12.80;99.90
14008;DHT22;61651;45.508;12.232;2022-12-07T11:49:00;13.00;99.90
14008;DHT22;61651;45.508;12.232;2022-12-07T11:52:10;13.00;99.90
14008;DHT22;61651;45.508;12.232;2022-12-07T11:55:21;13.10;99.90
14008;DHT22;61651;45.508;12.232;2022-12-07T11:58:38;13.20;99.90
14008;DHT22;61651;45.508;12.232;2022-12-07T12:01:50;13.30;99.90
14008;DHT22;61651;45.508;12.232;2022-12-07T12:04:58;13.40;99.90
14008;DHT22;61651;45.508;12.232;2022-12-07T12:08:11;13.60;99.90
14008;DHT22;61651;45.508;12.232;2022-12-07T12:11:25;13.80;99.90
14008;DHT22;61651;45.508;12.232;2022-12-07T12:14:43;13.80;99.90
14008;DHT22;61651;45.508;12.232;2022-12-07T12:18:09;13.90;99.90
14008;DHT22;61651;45.508;12.232;2022-12-07T12:21:16;14.10;99.90
14008;DHT22;61651;45.508;12.232;2022-12-07T12:24:23;14.10;99.90
14008;DHT22;61651;45.508;12.232;2022-12-07T12:27:31;14.20;99.90
14008;DHT22;61651;45.508;12.232;2022-12-07T12:30:35;14.40;99.90
14008;DHT22;61651;45.508;12.232;2022-12-07T12:33:42;14.50;99.90
14008;DHT22;61651;45.508;12.232;2022-12-07T12:36:47;14.50;99.90
14008;DHT22;61651;45.508;12.232;2022-12-07T12:43:52;14.60;99.90
14008;DHT22;61651;45.508;12.232;2022-12-07T12:46:55;14.70;99.90
14008;DHT22;61651;45.508;12.232;2022-12-07T12:53:21;15.00;99.90
14008;DHT22;61651;45.508;12.232;2022-12-07T12:56:35;15.20;99.90
14008;DHT22;61651;45.508;12.232;2022-12-07T12:59:42;15.40;99.90
14008;DHT22;61651;45.508;12.232;2022-12-07T13:02:59;15.60;99.90
14008;DHT22;61651;45.508;12.232;2022-12-07T13:06:31;15.70;99.90
14008;DHT22;61651;45.508;12.232;2022-12-07T13:09:34;15.90;99.90
14008;DHT22;61651;45.508;12.232;2022-12-07T13:12:36;16.00;99.90
14008;DHT22;61651;45.508;12.232;2022-12-07T13:15:41;16.10;99.90
14008;DHT22;61651;45.508;12.232;2022-12-07T13:18:43;16.20;99.90
14008;DHT22;61651;45.508;12.232;2022-12-07T13:21:45;16.30;99.90
14008;DHT22;61651;45.508;12.232;2022-12-07T13:24:47;16.50;99.90
14008;DHT22;61651;45.508;12.232;2022-12-07T13:27:56;16.80;99.90
14008;DHT22;61651;45.508;12.232;2022-12-07T13:31:08;17.00;99.90
14008;DHT22;61651;45.508;12.232;2022-12-07T13:34:30;17.10;99.90
14008;DHT22;61651;45.508;12.232;2022-12-07T13:37:33;17.30;99.90
14008;DHT22;61651;45.508;12.232;2022-12-07T13:40:35;17.40;99.90
14008;DHT22;61651;45.508;12.232;2022-12-07T13:43:51;17.60;99.90
14008;DHT22;61651;45.508;12.232;2022-12-07T13:47:00;17.80;99.90
14008;DHT22;61651;45.508;12.232;2022-12-07T13:50:23;17.90;99.90
14008;DHT22;61651;45.508;12.232;2022-12-07T13:53:25;18.00;99.90
14008;DHT22;61651;45.508;12.232;2022-12-07T13:56:33;18.10;99.90
14008;DHT22;61651;45.508;12.232;2022-12-07T13:59:36;18.20;99.90
14008;DHT22;61651;45.508;12.232;2022-12-07T14:02:55;18.20;99.90
14008;DHT22;61651;45.508;12.232;2022-12-07T14:06:17;18.30;99.90
14008;DHT22;61651;45.508;12.232;2022-12-07T14:09:22;18.40;99.90
14008;DHT22;61651;45.508;12.232;2022-12-07T14:12:24;18.30;99.90
14008;DHT22;61651;45.508;12.232;2022-12-07T14:15:29;18.30;99.90
14008;DHT22;61651;45.508;12.232;2022-12-07T14:18:38;18.40;99.90
14008;DHT22;61651;45.508;12.232;2022-12-07T14:21:41;18.40;99.90
14008;DHT22;61651;45.508;12.232;2022-12-07T14:24:43;18.40;99.90
14008;DHT22;61651;45.508;12.232;2022-12-07T14:27:51;18.40;99.90
14008;DHT22;61651;45.508;12.232;2022-12-07T14:30:56;18.20;99.90
14008;DHT22;61651;45.508;12.232;2022-12-07T14:34:00;18.20;99.90
14008;DHT22;61651;45.508;12.232;2022-12-07T14:37:02;18.20;99.90
14008;DHT22;61651;45.508;12.232;2022-12-07T14:40:05;18.10;99.90
14008;DHT22;61651;45.508;12.232;2022-12-07T14:43:11;18.10;99.90
14008;DHT22;61651;45.508;12.232;2022-12-07T14:46:14;18.10;99.90
14008;DHT22;61651;45.508;12.232;2022-12-07T14:49:17;18.00;99.90
14008;DHT22;61651;45.508;12.232;2022-12-07T14:52:21;17.90;99.90
14008;DHT22;61651;45.508;12.232;2022-12-07T14:55:26;17.80;99.90
14008;DHT22;61651;45.508;12.232;2022-12-07T14:58:28;17.70;99.90
14008;DHT22;61651;45.508;12.232;2022-12-07T15:01:30;17.60;99.90
14008;DHT22;61651;45.508;12.232;2022-12-07T15:04:34;17.50;99.90
14008;DHT22;61651;45.508;12.232;2022-12-07T15:07:36;17.30;99.90
14008;DHT22;61651;45.508;12.232;2022-12-07T15:10:38;17.10;99.90
14008;DHT22;61651;45.508;12.232;2022-12-07T15:13:41;16.80;99.90
14008;DHT22;61651;45.508;12.232;2022-12-07T15:17:02;16.40;99.90
14008;DHT22;61651;45.508;12.232;2022-12-07T15:20:09;16.00;99.90
14008;DHT22;61651;45.508;12.232;2022-12-07T15:23:13;15.80;99.90
14008;DHT22;61651;45.508;12.232;2022-12-07T15:26:15;15.50;99.90
14008;DHT22;61651;45.508;12.232;2022-12-07T15:29:18;15.30;99.90
14008;DHT22;61651;45.508;12.232;2022-12-07T15:32:21;15.10;99.90
14008;DHT22;61651;45.508;12.232;2022-12-07T15:35:25;14.90;99.90
14008;DHT22;61651;45.508;12.232;2022-12-07T15:38:27;14.70;99.90
14008;DHT22;61651;45.508;12.232;2022-12-07T15:41:31;14.60;99.90
14008;DHT22;61651;45.508;12.232;2022-12-07T15:44:33;14.40;99.90
14008;DHT22;61651;45.508;12.232;2022-12-07T15:47:52;14.30;99.90
14008;DHT22;61651;45.508;12.232;2022-12-07T15:51:03;14.10;99.90
14008;DHT22;61651;45.508;12.232;2022-12-07T15:54:05;14.00;99.90
14008;DHT22;61651;45.508;12.232;2022-12-07T15:57:07;13.90;99.90
14008;DHT22;61651;45.508;12.232;2022-12-07T16:00:10;13.80;99.90
14008;DHT22;61651;45.508;12.232;2022-12-07T16:03:13;13.70;99.90
14008;DHT22;61651;45.508;12.232;2022-12-07T16:06:17;13.60;99.90
14008;DHT22;61651;45.508;12.232;2022-12-07T16:09:20;13.50;99.90
14008;DHT22;61651;45.508;12.232;2022-12-07T16:12:22;13.30;99.90
14008;DHT22;61651;45.508;12.232;2022-12-07T16:15:25;13.20;99.90
14008;DHT22;61651;45.508;12.232;2022-12-07T16:18:27;13.20;99.90
14008;DHT22;61651;45.508;12.232;2022-12-07T16:21:31;13.10;99.90
14008;DHT22;61651;45.508;12.232;2022-12-07T16:24:33;13.00;99.90
14008;DHT22;61651;45.508;12.232;2022-12-07T16:27:35;12.90;99.90
14008;DHT22;61651;45.508;12.232;2022-12-07T16:30:37;12.90;99.90
14008;DHT22;61651;45.508;12.232;2022-12-07T16:33:40;12.90;99.90
14008;DHT22;61651;45.508;12.232;2022-12-07T16:36:44;12.80;99.90
14008;DHT22;61651;45.508;12.232;2022-12-07T16:39:46;12.70;99.90
14008;DHT22;61651;45.508;12.232;2022-12-07T16:42:48;12.60;99.90
14008;DHT22;61651;45.508;12.232;2022-12-07T16:45:50;12.50;99.90
14008;DHT22;61651;45.508;12.232;2022-12-07T16:48:52;12.40;99.90
14008;DHT22;61651;45.508;12.232;2022-12-07T16:51:55;12.30;99.90
14008;DHT22;61651;45.508;12.232;2022-12-07T16:54:57;12.30;99.90
14008;DHT22;61651;45.508;12.232;2022-12-07T16:57:59;12.20;99.90
14008;DHT22;61651;45.508;12.232;2022-12-07T17:01:09;12.10;99.90
14008;DHT22;61651;45.508;12.232;2022-12-07T17:04:11;12.00;99.90
14008;DHT22;61651;45.508;12.232;2022-12-07T17:07:15;12.00;99.90
14008;DHT22;61651;45.508;12.232;2022-12-07T17:10:17;11.90;99.90
14008;DHT22;61651;45.508;12.232;2022-12-07T17:13:19;11.80;99.90
14008;DHT22;61651;45.508;12.232;2022-12-07T17:16:37;11.80;99.90
14008;DHT22;61651;45.508;12.232;2022-12-07T17:19:39;11.60;99.90
14008;DHT22;61651;45.508;12.232;2022-12-07T17:22:44;11.60;99.90
14008;DHT22;61651;45.508;12.232;2022-12-07T17:25:46;11.30;99.90
14008;DHT22;61651;45.508;12.232;2022-12-07T17:28:48;10.80;99.90
14008;DHT22;61651;45.508;12.232;2022-12-07T17:31:50;10.80;99.90
14008;DHT22;61651;45.508;12.232;2022-12-07T17:34:52;11.00;99.90
14008;DHT22;61651;45.508;12.232;2022-12-07T17:37:55;11.10;99.90
14008;DHT22;61651;45.508;12.232;2022-12-07T17:40:57;11.10;99.90
14008;DHT22;61651;45.508;12.232;2022-12-07T17:43:59;11.00;99.90
14008;DHT22;61651;45.508;12.232;2022-12-07T17:47:01;11.00;99.90
14008;DHT22;61651;45.508;12.232;2022-12-07T17:50:05;11.00;99.90
14008;DHT22;61651;45.508;12.232;2022-12-07T17:53:10;11.00;99.90
14008;DHT22;61651;45.508;12.232;2022-12-07T17:56:11;10.90;99.90
14008;DHT22;61651;45.508;12.232;2022-12-07T17:59:13;10.90;99.90
14008;DHT22;61651;45.508;12.232;2022-12-07T18:02:15;10.90;99.90
14008;DHT22;61651;45.508;12.232;2022-12-07T18:05:17;10.90;99.90
14008;DHT22;61651;45.508;12.232;2022-12-07T18:08:21;10.70;99.90
14008;DHT22;61651;45.508;12.232;2022-12-07T18:11:23;10.60;99.90
14008;DHT22;61651;45.508;12.232;2022-12-07T18:14:26;10.70;99.90
14008;DHT22;61651;45.508;12.232;2022-12-07T18:17:28;10.60;99.90
14008;DHT22;61651;45.508;12.232;2022-12-07T18:20:30;10.60;99.90
14008;DHT22;61651;45.508;12.232;2022-12-07T18:23:34;10.60;99.90
14008;DHT22;61651;45.508;12.232;2022-12-07T18:26:36;10.50;99.90
14008;DHT22;61651;45.508;12.232;2022-12-07T18:29:39;10.40;99.90
14008;DHT22;61651;45.508;12.232;2022-12-07T18:32:42;10.30;99.90
14008;DHT22;61651;45.508;12.232;2022-12-07T18:35:44;10.20;99.90
14008;DHT22;61651;45.508;12.232;2022-12-07T18:38:48;10.20;99.90
14008;DHT22;61651;45.508;12.232;2022-12-07T18:41:50;10.20;99.90
14008;DHT22;61651;45.508;12.232;2022-12-07T18:44:52;10.10;99.90
14008;DHT22;61651;45.508;12.232;2022-12-07T18:47:54;10.00;99.90
14008;DHT22;61651;45.508;12.232;2022-12-07T18:51:01;10.00;99.90
14008;DHT22;61651;45.508;12.232;2022-12-07T18:54:05;10.10;99.90
14008;DHT22;61651;45.508;12.232;2022-12-07T18:57:07;10.20;99.90
14008;DHT22;61651;45.508;12.232;2022-12-07T19:00:10;10.10;99.90
14008;DHT22;61651;45.508;12.232;2022-12-07T19:03:12;10.00;99.90
14008;DHT22;61651;45.508;12.232;2022-12-07T19:06:14;10.00;99.90
14008;DHT22;61651;45.508;12.232;2022-12-07T19:09:18;10.10;99.90
14008;DHT22;61651;45.508;12.232;2022-12-07T19:12:20;10.10;99.90
14008;DHT22;61651;45.508;12.232;2022-12-07T19:15:22;10.10;99.90
14008;DHT22;61651;45.508;12.232;2022-12-07T19:18:24;10.10;99.90
14008;DHT22;61651;45.508;12.232;2022-12-07T19:21:26;10.00;99.90
14008;DHT22;61651;45.508;12.232;2022-12-07T19:24:30;10.00;99.90
14008;DHT22;61651;45.508;12.232;2022-12-07T19:27:32;10.00;99.90
14008;DHT22;61651;45.508;12.232;2022-12-07T19:30:34;10.00;99.90
14008;DHT22;61651;45.508;12.232;2022-12-07T19:33:36;10.00;99.90
14008;DHT22;61651;45.508;12.232;2022-12-07T19:36:38;10.00;99.90
14008;DHT22;61651;45.508;12.232;2022-12-07T19:39:42;9.90;99.90